createdAt,value
2022-10-22T00:01:00.173Z,12.27
2022-10-22T00:03:28.040Z,10.13
2022-10-22T00:05:55.951Z,13.27
2022-10-22T00:08:25.224Z,10.27
2022-10-22T00:10:53.412Z,9.43
2022-10-22T00:13:21.962Z,7.38
2022-10-22T00:15:50.094Z,7.00
2022-10-22T00:18:17.969Z,9.80
2022-10-22T00:20:45.945Z,12.18
2022-10-22T00:23:14.073Z,15.05
2022-10-22T00:25:43.269Z,10.52
2022-10-22T00:28:11.774Z,7.20
2022-10-22T00:30:39.633Z,14.00
2022-10-22T00:33:07.527Z,9.73
2022-10-22T00:35:35.803Z,9.93
2022-10-22T00:38:03.830Z,9.18
2022-10-22T00:40:31.883Z,8.60
2022-10-22T00:43:01.215Z,9.93
2022-10-22T00:45:30.083Z,7.53
2022-10-22T00:48:02.895Z,13.13
2022-10-22T00:50:35.248Z,11.48
2022-10-22T00:53:05.398Z,8.45
2022-10-22T00:55:34.871Z,10.50
2022-10-22T00:58:05.111Z,10.18
2022-10-22T01:00:33.207Z,5.97
2022-10-22T01:03:01.349Z,10.82
2022-10-22T01:05:31.812Z,7.70
2022-10-22T01:07:59.750Z,11.48
2022-10-22T01:10:53.199Z,7.18
2022-10-22T01:13:35.199Z,6.45
2022-10-22T01:16:11.712Z,10.48
2022-10-22T01:18:46.401Z,7.00
2022-10-22T01:21:24.136Z,7.47
2022-10-22T01:24:14.137Z,7.57
2022-10-22T01:27:10.501Z,9.18
2022-10-22T01:29:43.788Z,8.55
2022-10-22T01:32:16.412Z,7.90
2022-10-22T01:34:47.925Z,7.75
2022-10-22T01:37:16.505Z,14.80
2022-10-22T01:39:46.547Z,8.77
2022-10-22T01:42:14.684Z,6.93
2022-10-22T01:44:44.135Z,9.32
2022-10-22T01:47:20.751Z,7.32
2022-10-22T01:50:21.139Z,10.85
2022-10-22T01:53:10.026Z,12.45
2022-10-22T01:55:44.561Z,14.75
2022-10-22T01:58:23.928Z,16.10
2022-10-22T02:01:01.699Z,8.57
2022-10-22T02:03:36.238Z,14.20
2022-10-22T02:06:08.760Z,6.47
2022-10-22T02:08:37.804Z,11.13
2022-10-22T02:11:06.841Z,14.63
2022-10-22T02:13:38.585Z,10.40
2022-10-22T02:16:10.611Z,8.85
2022-10-22T02:18:41.667Z,16.13
2022-10-22T02:21:10.448Z,12.77
2022-10-22T02:23:38.734Z,11.43
2022-10-22T02:26:13.151Z,11.15
2022-10-22T02:28:47.225Z,13.07
2022-10-22T02:31:22.182Z,7.45
2022-10-22T02:33:54.228Z,13.75
2022-10-22T02:36:23.590Z,18.83
2022-10-22T02:38:53.428Z,13.13
2022-10-22T02:41:21.433Z,10.88
2022-10-22T02:43:52.439Z,8.93
2022-10-22T02:46:21.828Z,9.63
2022-10-22T02:48:49.853Z,13.23
2022-10-22T02:51:17.856Z,10.10
2022-10-22T02:53:45.794Z,9.30
2022-10-22T02:56:14.225Z,20.88
2022-10-22T02:58:42.219Z,13.25
2022-10-22T03:01:12.401Z,20.02
2022-10-22T03:03:44.536Z,20.95
2022-10-22T03:06:12.599Z,15.55
2022-10-22T03:08:41.385Z,15.35
2022-10-22T03:11:09.304Z,15.73
2022-10-22T03:13:37.240Z,21.30
2022-10-22T03:16:05.457Z,11.82
2022-10-22T03:18:33.353Z,15.25
2022-10-22T03:21:10.837Z,10.70
2022-10-22T03:23:39.891Z,10.35
2022-10-22T03:26:09.853Z,12.93
2022-10-22T03:28:38.860Z,15.63
2022-10-22T03:31:07.084Z,15.90
2022-10-22T03:33:34.957Z,14.57
2022-10-22T03:36:04.303Z,20.10
2022-10-22T03:38:32.318Z,10.95
2022-10-22T03:41:00.245Z,15.70
2022-10-22T03:43:28.537Z,19.65
2022-10-22T03:45:56.604Z,13.70
2022-10-22T03:48:24.679Z,11.23
2022-10-22T03:50:52.550Z,17.83
2022-10-22T03:53:22.545Z,18.13
2022-10-22T03:55:50.435Z,12.63
2022-10-22T03:58:18.355Z,12.63
2022-10-22T04:00:46.252Z,19.45
2022-10-22T04:03:14.125Z,19.10
2022-10-22T04:05:42.031Z,19.00
2022-10-22T04:08:10.258Z,16.92
2022-10-22T04:10:39.488Z,10.38
2022-10-22T04:13:07.332Z,20.42
2022-10-22T04:15:35.315Z,13.70
2022-10-22T04:18:03.273Z,11.27
2022-10-22T04:20:31.132Z,11.50
2022-10-22T04:22:58.967Z,16.23
2022-10-22T04:25:27.421Z,11.73
2022-10-22T04:27:56.615Z,16.10
2022-10-22T04:30:24.532Z,16.67
2022-10-22T04:32:52.498Z,16.02
2022-10-22T04:35:20.424Z,14.80
2022-10-22T04:37:48.307Z,13.30
2022-10-22T04:40:16.349Z,22.15
2022-10-22T04:42:44.257Z,12.88
2022-10-22T04:45:15.642Z,16.45
2022-10-22T04:47:43.781Z,10.25
2022-10-22T04:50:11.916Z,12.43
2022-10-22T04:52:39.796Z,12.40
2022-10-22T04:55:08.099Z,7.88
2022-10-22T04:57:36.013Z,13.88
2022-10-22T05:00:04.164Z,13.50
2022-10-22T05:02:33.413Z,19.00
2022-10-22T05:05:01.337Z,21.10
2022-10-22T05:07:29.212Z,12.52
2022-10-22T05:09:57.077Z,15.57
2022-10-22T05:12:26.128Z,12.95
2022-10-22T05:14:53.977Z,14.20
2022-10-22T05:17:21.825Z,12.77
2022-10-22T05:19:51.102Z,13.73
2022-10-22T05:22:18.967Z,15.43
2022-10-22T05:24:46.822Z,15.65
2022-10-22T05:27:14.726Z,19.02
2022-10-22T05:29:42.590Z,16.35
2022-10-22T05:32:10.418Z,16.55
2022-10-22T05:34:38.548Z,12.48
2022-10-22T05:37:07.788Z,9.45
2022-10-22T05:39:36.963Z,20.40
2022-10-22T05:42:05.247Z,13.50
2022-10-22T05:44:33.266Z,15.23
2022-10-22T05:47:01.119Z,16.77
2022-10-22T05:49:29.125Z,16.20
2022-10-22T05:51:56.964Z,13.98
2022-10-22T05:54:26.200Z,21.58
2022-10-22T05:56:56.446Z,13.68
2022-10-22T05:59:24.419Z,15.85
2022-10-22T06:01:52.369Z,13.52
2022-10-22T06:04:20.321Z,12.32
2022-10-22T06:06:50.115Z,12.02
2022-10-22T06:09:21.081Z,25.02
2022-10-22T06:11:51.789Z,20.55
2022-10-22T06:14:20.546Z,13.52
2022-10-22T06:16:48.617Z,14.85
2022-10-22T06:19:19.112Z,13.85
2022-10-22T06:21:47.119Z,16.08
2022-10-22T06:24:15.281Z,16.08
2022-10-22T06:26:43.218Z,18.65
2022-10-22T06:29:12.519Z,13.63
2022-10-22T06:31:40.517Z,28.20
2022-10-22T06:34:11.284Z,12.85
2022-10-22T06:36:39.376Z,15.48
2022-10-22T06:39:07.406Z,13.23
2022-10-22T06:41:35.377Z,18.42
2022-10-22T06:44:03.363Z,14.88
2022-10-22T06:46:32.780Z,12.63
2022-10-22T06:49:03.000Z,13.07
2022-10-22T06:51:30.977Z,11.98
2022-10-22T06:53:59.554Z,18.88
2022-10-22T06:56:29.511Z,15.57
2022-10-22T06:58:59.070Z,12.65
2022-10-22T07:01:28.856Z,13.10
2022-10-22T07:03:58.728Z,13.75
2022-10-22T07:06:28.107Z,18.65
2022-10-22T07:08:57.390Z,23.20
2022-10-22T07:11:28.120Z,17.38
2022-10-22T07:13:56.782Z,16.42
2022-10-22T07:16:29.527Z,21.40
2022-10-22T07:19:01.791Z,17.73
2022-10-22T07:21:30.727Z,23.15
2022-10-22T07:23:59.079Z,17.58
2022-10-22T07:26:30.862Z,13.73
2022-10-22T07:28:59.448Z,19.30
2022-10-22T07:31:27.421Z,17.30
2022-10-22T07:33:55.388Z,15.80
2022-10-22T07:36:24.634Z,18.80
2022-10-22T07:38:56.500Z,12.32
2022-10-22T07:41:24.952Z,12.77
2022-10-22T07:43:53.196Z,11.02
2022-10-22T07:46:21.744Z,12.18
2022-10-22T07:48:49.896Z,19.80
2022-10-22T07:51:18.584Z,11.25
2022-10-22T07:53:47.857Z,12.07
2022-10-22T07:56:15.856Z,17.15
2022-10-22T07:58:43.849Z,12.13
2022-10-22T08:01:11.795Z,16.55
2022-10-22T08:03:39.756Z,14.02
2022-10-22T08:06:08.285Z,12.75
2022-10-22T08:08:36.340Z,14.45
2022-10-22T08:11:05.819Z,15.73
2022-10-22T08:13:33.723Z,13.05
2022-10-22T08:16:01.978Z,13.23
2022-10-22T08:18:30.513Z,16.48
2022-10-22T08:20:58.804Z,10.63
2022-10-22T08:23:28.711Z,13.38
2022-10-22T08:25:57.705Z,19.20
2022-10-22T08:28:28.761Z,19.73
2022-10-22T08:30:56.776Z,12.20
2022-10-22T08:33:24.669Z,11.43
2022-10-22T08:35:53.540Z,13.40
2022-10-22T08:38:21.693Z,16.65
2022-10-22T08:40:52.529Z,15.82
2022-10-22T08:44:08.107Z,17.92
2022-10-22T08:49:18.371Z,12.00
2022-10-22T08:51:46.377Z,8.18
2022-10-22T08:54:26.077Z,15.18
2022-10-22T08:57:07.924Z,17.10
2022-10-22T08:59:42.753Z,12.15
2022-10-22T09:02:28.050Z,18.13
2022-10-22T09:05:03.196Z,11.93
2022-10-22T09:07:31.248Z,10.68
2022-10-22T09:10:01.395Z,11.25
2022-10-22T09:12:29.829Z,17.02
2022-10-22T09:14:59.048Z,15.75
2022-10-22T09:17:35.784Z,19.10
2022-10-22T09:20:10.912Z,16.65
2022-10-22T09:22:47.281Z,13.52
2022-10-22T09:25:21.077Z,10.90
2022-10-22T09:27:49.744Z,12.52
2022-10-22T09:30:20.790Z,14.30
2022-10-22T09:32:51.861Z,12.27
2022-10-22T09:35:24.168Z,15.93
2022-10-22T09:37:55.590Z,9.35
2022-10-22T09:40:24.995Z,15.82
2022-10-22T09:42:52.878Z,10.27
2022-10-22T09:45:26.034Z,12.32
2022-10-22T09:48:10.708Z,14.77
2022-10-22T09:50:44.526Z,11.20
2022-10-22T09:53:20.699Z,11.18
2022-10-22T09:58:22.237Z,10.95
2022-10-22T10:00:54.634Z,10.35
2022-10-22T10:03:25.939Z,13.68
2022-10-22T10:05:57.350Z,11.90
2022-10-22T10:08:27.599Z,14.80
2022-10-22T10:11:00.418Z,13.05
2022-10-22T10:13:47.189Z,11.68
2022-10-22T10:16:39.049Z,19.77
2022-10-22T10:19:28.559Z,12.10
2022-10-22T10:22:05.148Z,15.07
2022-10-22T10:24:44.049Z,14.90
2022-10-22T10:27:16.298Z,13.98
2022-10-22T10:29:55.649Z,11.40
2022-10-22T10:32:48.191Z,10.10
2022-10-22T10:35:22.844Z,15.00
2022-10-22T10:38:06.663Z,9.95
2022-10-22T10:40:44.748Z,11.02
2022-10-22T10:43:18.215Z,14.32
2022-10-22T10:45:56.346Z,14.05
2022-10-22T10:48:42.917Z,12.48
2022-10-22T10:51:24.972Z,8.57
2022-10-22T10:54:04.904Z,12.38
2022-10-22T10:56:40.041Z,17.70
2022-10-22T10:59:18.927Z,13.85
2022-10-22T11:02:03.900Z,14.15
2022-10-22T11:04:51.297Z,16.30
2022-10-22T11:07:34.330Z,10.90
2022-10-22T11:10:23.953Z,13.20
2022-10-22T11:12:54.136Z,47.17
2022-10-22T11:15:28.657Z,12.93
2022-10-22T11:18:02.530Z,13.85
2022-10-22T11:20:42.128Z,20.83
2022-10-22T11:23:20.876Z,15.65
2022-10-22T11:25:51.490Z,15.05
2022-10-22T11:28:24.900Z,12.50
2022-10-22T11:30:59.251Z,12.73
2022-10-22T11:33:33.850Z,8.65
2022-10-22T11:36:04.921Z,17.35
2022-10-22T11:38:35.757Z,17.70
2022-10-22T11:41:07.246Z,13.68
2022-10-22T11:43:36.780Z,15.95
2022-10-22T11:46:25.678Z,15.38
2022-10-22T11:49:05.434Z,8.13
2022-10-22T11:51:36.458Z,11.90
2022-10-22T11:54:27.784Z,12.23
2022-10-22T11:57:17.234Z,8.82
2022-10-22T11:59:50.678Z,19.00
2022-10-22T12:02:41.194Z,11.55
2022-10-22T12:05:37.162Z,18.73
2022-10-22T12:08:27.869Z,19.58
2022-10-22T12:11:13.243Z,9.32
2022-10-22T12:14:20.084Z,11.48
2022-10-22T12:16:57.216Z,16.42
2022-10-22T12:19:28.778Z,12.15
2022-10-22T12:21:59.708Z,12.45
2022-10-22T12:24:33.691Z,13.85
2022-10-22T12:27:01.597Z,11.43
2022-10-22T12:29:32.479Z,18.38
2022-10-22T12:32:04.509Z,6.63
2022-10-22T12:34:32.424Z,15.65
2022-10-22T12:37:00.284Z,10.70
2022-10-22T12:39:30.043Z,13.07
2022-10-22T12:41:57.975Z,15.10
2022-10-22T12:44:25.889Z,13.60
2022-10-22T12:46:56.879Z,19.10
2022-10-22T12:49:32.869Z,13.30
2022-10-22T12:52:04.056Z,15.10
2022-10-22T12:54:35.414Z,9.65
2022-10-22T12:57:03.685Z,17.98
2022-10-22T12:59:36.413Z,13.07
2022-10-22T13:02:09.039Z,16.40
2022-10-22T13:04:39.481Z,19.73
2022-10-22T13:07:21.315Z,19.33
2022-10-22T13:09:59.487Z,13.05
2022-10-22T13:12:28.953Z,14.63
2022-10-22T13:14:56.815Z,10.95
2022-10-22T13:17:40.779Z,22.30
2022-10-22T13:20:19.141Z,11.45
2022-10-22T13:23:00.435Z,13.35
2022-10-22T13:25:31.914Z,19.25
2022-10-22T13:28:01.927Z,14.63
2022-10-22T13:30:34.714Z,15.02
2022-10-22T13:33:05.137Z,22.80
2022-10-22T13:35:35.207Z,15.43
2022-10-22T13:38:03.497Z,20.13
2022-10-22T13:40:32.723Z,17.88
2022-10-22T13:43:00.684Z,17.95
2022-10-22T13:45:28.666Z,14.95
2022-10-22T13:47:57.155Z,12.75
2022-10-22T13:50:25.041Z,14.05
2022-10-22T13:52:55.168Z,17.73
2022-10-22T13:55:26.027Z,12.82
2022-10-22T13:57:57.337Z,22.10
2022-10-22T14:00:26.171Z,18.45
2022-10-22T14:02:58.285Z,18.42
2022-10-22T14:05:26.390Z,17.10
2022-10-22T14:07:54.544Z,15.00
2022-10-22T14:10:24.594Z,14.07
2022-10-22T14:12:53.919Z,21.42
2022-10-22T14:15:25.054Z,14.82
2022-10-22T14:17:57.485Z,10.70
2022-10-22T14:20:27.817Z,16.67
2022-10-22T14:22:55.744Z,17.42
2022-10-22T14:25:25.965Z,17.35
2022-10-22T14:27:54.082Z,20.13
2022-10-22T14:30:29.685Z,15.50
2022-10-22T14:32:59.622Z,14.80
2022-10-22T14:35:27.503Z,11.40
2022-10-22T14:37:55.402Z,14.90
2022-10-22T14:40:23.420Z,42.72
2022-10-22T14:42:52.380Z,32.00
2022-10-22T14:45:24.481Z,26.17
2022-10-22T14:47:54.892Z,12.05
2022-10-22T14:50:23.174Z,13.10
2022-10-22T14:52:51.296Z,24.88
2022-10-22T14:55:20.511Z,14.52
2022-10-22T14:57:48.377Z,18.63
2022-10-22T15:00:18.317Z,24.42
2022-10-22T15:02:49.007Z,16.85
2022-10-22T15:05:17.491Z,14.68
2022-10-22T15:07:45.675Z,10.25
2022-10-22T15:10:13.823Z,18.75
2022-10-22T15:12:41.923Z,21.65
2022-10-22T15:15:10.511Z,11.18
2022-10-22T15:17:38.596Z,15.80
2022-10-22T15:20:08.768Z,15.55
2022-10-22T15:22:38.237Z,13.63
2022-10-22T15:25:08.421Z,16.23
2022-10-22T15:27:36.856Z,12.02
2022-10-22T15:30:05.425Z,17.08
2022-10-22T15:32:34.111Z,19.25
2022-10-22T15:35:02.480Z,17.05
2022-10-22T15:37:31.897Z,15.07
2022-10-22T15:40:00.660Z,16.48
2022-10-22T15:42:28.510Z,13.35
2022-10-22T15:44:59.911Z,14.50
2022-10-22T15:47:29.655Z,15.55
2022-10-22T15:49:57.659Z,15.40
2022-10-22T15:52:25.591Z,18.90
2022-10-22T15:54:55.015Z,23.10
2022-10-22T15:57:22.854Z,15.85
2022-10-22T15:59:51.968Z,14.35
2022-10-22T16:02:19.897Z,19.38
2022-10-22T16:04:48.015Z,17.92
2022-10-22T16:07:17.273Z,14.90
2022-10-22T16:09:45.993Z,17.05
2022-10-22T16:12:17.242Z,14.27
2022-10-22T16:14:45.379Z,15.73
2022-10-22T16:17:13.286Z,12.10
2022-10-22T16:19:41.170Z,11.30
2022-10-22T16:22:11.544Z,12.82
2022-10-22T16:24:40.412Z,17.38
2022-10-22T16:27:09.023Z,15.38
2022-10-22T16:29:40.190Z,11.38
2022-10-22T16:32:08.137Z,18.33
2022-10-22T16:34:36.003Z,12.52
2022-10-22T16:37:10.223Z,12.65
2022-10-22T16:39:38.882Z,16.70
2022-10-22T16:42:07.145Z,14.65
2022-10-22T16:44:35.147Z,17.67
2022-10-22T16:47:04.351Z,18.33
2022-10-22T16:49:32.192Z,10.00
2022-10-22T16:52:00.079Z,12.65
2022-10-22T16:54:28.045Z,14.82
2022-10-22T16:56:55.910Z,15.90
2022-10-22T16:59:23.831Z,11.20
2022-10-22T17:01:51.846Z,18.23
2022-10-22T17:04:21.835Z,16.02
2022-10-22T17:06:49.798Z,17.60
2022-10-22T17:09:17.725Z,17.92
2022-10-22T17:11:45.693Z,22.50
2022-10-22T17:14:13.570Z,20.35
2022-10-22T17:16:41.430Z,18.27
2022-10-22T17:19:11.741Z,20.73
2022-10-22T17:21:40.981Z,23.10
2022-10-22T17:24:09.127Z,20.33
2022-10-22T17:26:37.547Z,21.10
2022-10-22T17:29:05.504Z,17.50
2022-10-22T17:31:37.204Z,21.65
2022-10-22T17:34:07.298Z,25.77
2022-10-22T17:36:36.293Z,21.85
2022-10-22T17:39:07.630Z,24.30
2022-10-22T17:41:37.837Z,29.38
2022-10-22T17:44:12.207Z,36.47
2022-10-22T17:46:40.181Z,29.20
2022-10-22T17:49:16.173Z,31.38
2022-10-22T17:51:44.578Z,30.25
2022-10-22T17:54:14.744Z,30.23
2022-10-22T17:56:42.620Z,32.67
2022-10-22T17:59:14.651Z,31.48
2022-10-22T18:01:45.715Z,38.50
2022-10-22T18:04:16.213Z,34.58
2022-10-22T18:06:45.155Z,28.48
2022-10-22T18:09:18.431Z,29.08
2022-10-22T18:11:47.853Z,33.03
2022-10-22T18:14:16.042Z,44.03
2022-10-22T18:16:43.905Z,34.58
2022-10-22T18:19:13.492Z,38.88
2022-10-22T18:21:41.317Z,30.42
2022-10-22T18:24:10.746Z,32.92
2022-10-22T18:26:40.058Z,32.30
2022-10-22T18:29:08.148Z,27.67
2022-10-22T18:31:35.992Z,28.10
2022-10-22T18:34:03.876Z,23.92
2022-10-22T18:36:31.773Z,29.15
2022-10-22T18:39:00.911Z,26.40
2022-10-22T18:41:30.061Z,29.02
2022-10-22T18:44:01.241Z,26.27
2022-10-22T18:46:30.594Z,30.95
2022-10-22T18:48:59.883Z,35.15
2022-10-22T18:51:31.649Z,34.55
2022-10-22T18:54:11.339Z,32.30
2022-10-22T18:56:46.039Z,32.80
2022-10-22T18:59:18.791Z,29.15
2022-10-22T19:01:46.727Z,39.45
2022-10-22T19:04:14.818Z,40.63
2022-10-22T19:06:45.740Z,37.90
2022-10-22T19:09:14.810Z,37.10
2022-10-22T19:11:44.051Z,41.20
2022-10-22T19:14:12.103Z,44.80
2022-10-22T19:16:41.394Z,37.45
2022-10-22T19:19:09.515Z,46.25
2022-10-22T19:21:38.773Z,46.42
2022-10-22T19:24:07.560Z,50.75
2022-10-22T19:26:35.624Z,56.95
2022-10-22T19:29:03.980Z,54.95
2022-10-22T19:31:32.244Z,58.22
2022-10-22T19:34:02.947Z,57.55
2022-10-22T19:36:32.745Z,52.42
2022-10-22T19:39:01.756Z,49.45
2022-10-22T19:41:31.394Z,46.67
2022-10-22T19:44:00.653Z,43.92
2022-10-22T19:46:30.037Z,46.25
2022-10-22T19:48:57.969Z,45.75
2022-10-22T19:51:30.750Z,48.38
2022-10-22T19:54:00.135Z,38.67
2022-10-22T19:56:28.988Z,34.28
2022-10-22T19:58:56.862Z,39.58
2022-10-22T20:01:25.081Z,34.58
2022-10-22T20:03:53.588Z,31.08
2022-10-22T20:06:22.055Z,26.45
2022-10-22T20:08:55.143Z,33.88
2022-10-22T20:13:52.944Z,28.17
2022-10-22T20:16:23.562Z,29.30
2022-10-22T20:18:51.548Z,29.30
2022-10-22T20:21:20.384Z,34.30
2022-10-22T20:23:49.009Z,34.97
2022-10-22T20:26:18.225Z,27.15
2022-10-22T20:28:46.106Z,28.08
2022-10-22T20:31:17.294Z,22.83
2022-10-22T20:33:45.189Z,28.85
2022-10-22T20:36:17.301Z,23.63
2022-10-22T20:38:47.908Z,24.92
2022-10-22T20:41:19.135Z,20.95
2022-10-22T20:43:47.595Z,22.15
2022-10-22T20:46:19.021Z,32.15
2022-10-22T20:48:47.102Z,25.65
2022-10-22T20:51:15.099Z,33.03
2022-10-22T20:53:43.417Z,25.05
2022-10-22T20:56:11.665Z,25.20
2022-10-22T20:58:46.330Z,28.02
2022-10-22T21:01:20.483Z,28.42
2022-10-22T21:06:16.617Z,23.38
2022-10-22T21:08:44.573Z,27.92
2022-10-22T21:11:12.632Z,26.50
2022-10-22T21:13:41.927Z,27.83
2022-10-22T21:16:11.021Z,26.45
2022-10-22T21:18:39.044Z,20.63
2022-10-22T21:21:07.724Z,31.17
2022-10-22T21:23:37.264Z,27.85
2022-10-22T21:26:06.131Z,21.88
2022-10-22T21:28:35.749Z,23.23
2022-10-22T21:31:06.672Z,29.73
2022-10-22T21:33:37.148Z,24.52
2022-10-22T21:36:05.953Z,27.60
2022-10-22T21:38:34.160Z,22.90
2022-10-22T21:41:05.492Z,23.13
2022-10-22T21:43:33.419Z,28.20
2022-10-22T21:46:08.278Z,29.00
2022-10-22T21:48:36.765Z,22.20
2022-10-22T21:51:09.034Z,24.42
2022-10-22T21:53:37.383Z,20.25
2022-10-22T21:56:06.826Z,21.00
2022-10-22T21:58:35.769Z,28.35
2022-10-22T22:01:04.744Z,19.05
2022-10-22T22:03:34.217Z,23.73
2022-10-22T22:06:04.143Z,19.67
2022-10-22T22:08:32.554Z,28.80
2022-10-22T22:11:04.772Z,20.70
2022-10-22T22:13:33.700Z,19.58
2022-10-22T22:16:02.654Z,22.33
2022-10-22T22:18:31.060Z,21.27
2022-10-22T22:21:01.125Z,19.77
2022-10-22T22:23:29.002Z,20.80
2022-10-22T22:26:00.086Z,19.65
2022-10-22T22:28:29.579Z,21.25
2022-10-22T22:30:57.552Z,18.20
2022-10-22T22:33:25.638Z,21.08
2022-10-22T22:35:53.712Z,19.95
2022-10-22T22:38:22.938Z,20.60
2022-10-22T22:40:50.842Z,22.48
2022-10-22T22:43:18.957Z,19.75
2022-10-22T22:45:46.859Z,17.70
2022-10-22T22:48:14.724Z,29.63
2022-10-22T22:50:42.686Z,23.75
2022-10-22T22:53:10.552Z,21.10
2022-10-22T22:55:39.842Z,24.52
2022-10-22T22:58:07.778Z,20.95
2022-10-22T23:00:35.705Z,21.40
2022-10-22T23:03:03.621Z,31.33
2022-10-22T23:05:31.762Z,25.83
2022-10-22T23:07:59.731Z,25.23
2022-10-22T23:10:27.591Z,24.92
2022-10-22T23:12:56.885Z,23.25
2022-10-22T23:15:24.749Z,24.10
2022-10-22T23:17:52.730Z,28.02
2022-10-22T23:20:20.783Z,30.27
2022-10-22T23:22:48.678Z,27.05
2022-10-22T23:25:16.642Z,26.67
2022-10-22T23:27:44.828Z,26.17
2022-10-22T23:30:15.838Z,28.08
2022-10-22T23:32:43.678Z,28.52
2022-10-22T23:35:11.582Z,23.40
2022-10-22T23:37:39.519Z,29.88
2022-10-22T23:40:08.632Z,29.60
2022-10-22T23:42:36.519Z,21.30
2022-10-22T23:45:04.652Z,23.92
2022-10-22T23:47:34.020Z,20.95
2022-10-22T23:50:01.959Z,20.70
2022-10-22T23:52:29.831Z,17.65
2022-10-22T23:54:57.658Z,19.67
2022-10-22T23:57:25.497Z,20.27
2022-10-22T23:59:54.531Z,20.17
